Airfield :
LOGIN :

Register | Disclaimer

   EN    FR    IT 

 










Legend :    VFR   Marginal VFR   IFR   Intensive IFR   Very Intensive IFR
Visi :
Ceiling :
>= 8 km
>= 3000ft
5 to 8 km
1000 to 3000 ft
1500m to 5 km
500 to 1000 ft
800 to 1500m
200 to 500 ft
< 800m
< 200 ft
Symbols :   Thunderstorms  Fog  Heavy snow  Heavy precipitations  Wind > 20 kt
SIGMETs :     Misc.  Thunderstorms  Icing  Turbulence  Mountain Waves  Volcanic Ashes







- Airport Elevation : 14 ft
- IATA code : BRE


EDDW - Bremen Neuenland

CURRENT METAR :
  • 220420Z 09003KT CAVOK 07/05 Q1017 NOSIG

EXPIRED METARs :
  • 220350Z 08004KT CAVOK 07/05 Q1017 NOSIG
  • 220320Z 08003KT CAVOK 08/05 Q1017
  • 220250Z 09002KT CAVOK 07/04 Q1018
  • 220220Z 07003KT CAVOK 07/04 Q1018
  • 220150Z 16003KT CAVOK 07/06 Q1018

TAF TAF EDDW
Valid from the 22 at 00:00 until the 23 at 00:00 UTC


212300Z 2200/2224 VRB03KT CAVOK
TEMPO 2203/2205 2000 BCFG
BECMG 2205/2208 12009KT
PROB40
TEMPO 2217/2224 23015G25KT TSRA BKN030CB
BECMG 2217/2219 20006KT
No reported NOTAMs for that airfield.



MET'MAP, your aeronautical weather chart ! - Copyright ORBIFLY December 2007 - Disclaimer

ORBIFLY MET'MAP TEAM :

Programming & Development : Alexandra Zaïnal
Concept & Development : Baudouin d'Aumeries
Co-Development & Prog : Marc-Olivier Méhu
Technical & hardware support : Manuel Goepfert

Contact : metmap@orbifly.com




SOURCES & CREDITS :

   NOAA